sensor_id;sensor_type;location;lat;lon;timestamp;P1;durP1;ratioP1;P2;durP2;ratioP2
28509;SDS011;15723;55.684;37.928;2023-01-16T00:01:23;42.78;;;14.32;;
28509;SDS011;15723;55.684;37.928;2023-01-16T00:03:51;48.58;;;16.05;;
28509;SDS011;15723;55.684;37.928;2023-01-16T00:06:17;53.78;;;16.98;;
28509;SDS011;15723;55.684;37.928;2023-01-16T00:08:44;37.40;;;15.80;;
28509;SDS011;15723;55.684;37.928;2023-01-16T00:11:10;35.63;;;14.23;;
28509;SDS011;15723;55.684;37.928;2023-01-16T00:13:37;36.08;;;15.45;;
28509;SDS011;15723;55.684;37.928;2023-01-16T00:16:03;38.33;;;15.80;;
28509;SDS011;15723;55.684;37.928;2023-01-16T00:18:30;43.25;;;15.55;;
28509;SDS011;15723;55.684;37.928;2023-01-16T00:20:56;36.50;;;14.85;;
28509;SDS011;15723;55.684;37.928;2023-01-16T00:23:22;32.13;;;14.30;;
28509;SDS011;15723;55.684;37.928;2023-01-16T00:25:48;41.90;;;15.57;;
28509;SDS011;15723;55.684;37.928;2023-01-16T00:28:15;35.22;;;13.65;;
28509;SDS011;15723;55.684;37.928;2023-01-16T00:30:41;29.08;;;13.20;;
28509;SDS011;15723;55.684;37.928;2023-01-16T00:33:08;33.95;;;13.38;;
28509;SDS011;15723;55.684;37.928;2023-01-16T00:35:34;39.58;;;14.65;;
28509;SDS011;15723;55.684;37.928;2023-01-16T00:38:01;36.78;;;13.52;;
28509;SDS011;15723;55.684;37.928;2023-01-16T00:40:27;31.80;;;12.75;;
28509;SDS011;15723;55.684;37.928;2023-01-16T00:42:53;34.83;;;13.93;;
28509;SDS011;15723;55.684;37.928;2023-01-16T00:45:20;37.58;;;14.75;;
28509;SDS011;15723;55.684;37.928;2023-01-16T00:47:46;33.85;;;13.40;;
28509;SDS011;15723;55.684;37.928;2023-01-16T00:50:12;37.92;;;13.05;;
28509;SDS011;15723;55.684;37.928;2023-01-16T00:52:38;37.17;;;14.30;;
28509;SDS011;15723;55.684;37.928;2023-01-16T00:55:05;32.60;;;12.10;;
28509;SDS011;15723;55.684;37.928;2023-01-16T00:57:31;26.17;;;12.30;;
28509;SDS011;15723;55.684;37.928;2023-01-16T00:59:57;31.27;;;12.75;;
28509;SDS011;15723;55.684;37.928;2023-01-16T01:02:23;36.65;;;13.88;;
28509;SDS011;15723;55.684;37.928;2023-01-16T01:04:50;35.80;;;12.88;;
28509;SDS011;15723;55.684;37.928;2023-01-16T01:07:16;29.15;;;14.98;;
28509;SDS011;15723;55.684;37.928;2023-01-16T01:09:42;31.40;;;13.95;;
28509;SDS011;15723;55.684;37.928;2023-01-16T01:12:08;35.75;;;14.98;;
28509;SDS011;15723;55.684;37.928;2023-01-16T01:14:34;36.58;;;14.43;;
28509;SDS011;15723;55.684;37.928;2023-01-16T01:17:00;32.78;;;14.18;;
28509;SDS011;15723;55.684;37.928;2023-01-16T01:19:27;45.10;;;14.82;;
28509;SDS011;15723;55.684;37.928;2023-01-16T01:21:53;46.72;;;17.42;;
28509;SDS011;15723;55.684;37.928;2023-01-16T01:24:19;45.15;;;16.80;;
28509;SDS011;15723;55.684;37.928;2023-01-16T01:26:45;41.75;;;15.77;;
28509;SDS011;15723;55.684;37.928;2023-01-16T01:29:12;48.33;;;16.90;;
28509;SDS011;15723;55.684;37.928;2023-01-16T01:31:38;52.78;;;15.88;;
28509;SDS011;15723;55.684;37.928;2023-01-16T01:34:04;46.67;;;17.85;;
28509;SDS011;15723;55.684;37.928;2023-01-16T01:36:30;46.95;;;17.52;;
28509;SDS011;15723;55.684;37.928;2023-01-16T01:38:56;49.45;;;19.77;;
28509;SDS011;15723;55.684;37.928;2023-01-16T01:41:23;42.55;;;17.23;;
28509;SDS011;15723;55.684;37.928;2023-01-16T01:43:50;40.05;;;15.65;;
28509;SDS011;15723;55.684;37.928;2023-01-16T01:46:21;47.83;;;16.17;;
28509;SDS011;15723;55.684;37.928;2023-01-16T01:48:55;45.70;;;17.23;;
28509;SDS011;15723;55.684;37.928;2023-01-16T01:51:30;48.85;;;15.60;;
28509;SDS011;15723;55.684;37.928;2023-01-16T01:54:02;45.60;;;17.65;;
28509;SDS011;15723;55.684;37.928;2023-01-16T01:56:35;49.47;;;17.13;;
28509;SDS011;15723;55.684;37.928;2023-01-16T01:59:12;39.67;;;14.80;;
28509;SDS011;15723;55.684;37.928;2023-01-16T02:01:42;40.60;;;14.32;;
28509;SDS011;15723;55.684;37.928;2023-01-16T02:04:10;39.03;;;13.32;;
28509;SDS011;15723;55.684;37.928;2023-01-16T02:06:43;39.53;;;14.05;;
28509;SDS011;15723;55.684;37.928;2023-01-16T02:09:13;44.45;;;13.85;;
28509;SDS011;15723;55.684;37.928;2023-01-16T02:14:32;34.42;;;12.80;;
28509;SDS011;15723;55.684;37.928;2023-01-16T02:17:13;32.55;;;12.20;;
28509;SDS011;15723;55.684;37.928;2023-01-16T02:25:33;38.28;;;11.75;;
28509;SDS011;15723;55.684;37.928;2023-01-16T02:28:30;32.63;;;12.63;;
28509;SDS011;15723;55.684;37.928;2023-01-16T02:31:20;32.58;;;12.35;;
28509;SDS011;15723;55.684;37.928;2023-01-16T02:36:36;42.83;;;12.45;;
28509;SDS011;15723;55.684;37.928;2023-01-16T02:44:33;42.50;;;12.73;;
28509;SDS011;15723;55.684;37.928;2023-01-16T02:50:08;33.88;;;10.95;;
28509;SDS011;15723;55.684;37.928;2023-01-16T02:53:00;43.90;;;10.60;;
28509;SDS011;15723;55.684;37.928;2023-01-16T02:55:39;24.45;;;9.32;;
28509;SDS011;15723;55.684;37.928;2023-01-16T02:58:11;22.60;;;10.20;;
28509;SDS011;15723;55.684;37.928;2023-01-16T03:00:52;38.85;;;10.90;;
28509;SDS011;15723;55.684;37.928;2023-01-16T03:03:29;34.45;;;9.95;;
28509;SDS011;15723;55.684;37.928;2023-01-16T03:09:11;30.15;;;9.43;;
28509;SDS011;15723;55.684;37.928;2023-01-16T03:14:38;34.58;;;10.98;;
28509;SDS011;15723;55.684;37.928;2023-01-16T03:22:44;32.65;;;10.18;;
28509;SDS011;15723;55.684;37.928;2023-01-16T03:36:16;33.00;;;9.32;;
28509;SDS011;15723;55.684;37.928;2023-01-16T03:38:59;33.03;;;10.68;;
28509;SDS011;15723;55.684;37.928;2023-01-16T03:41:29;27.95;;;10.25;;
28509;SDS011;15723;55.684;37.928;2023-01-16T03:43:59;31.38;;;11.38;;
28509;SDS011;15723;55.684;37.928;2023-01-16T03:46:30;31.05;;;10.68;;
28509;SDS011;15723;55.684;37.928;2023-01-16T03:49:05;30.10;;;10.07;;
28509;SDS011;15723;55.684;37.928;2023-01-16T03:51:42;22.75;;;9.10;;
28509;SDS011;15723;55.684;37.928;2023-01-16T03:54:20;36.70;;;10.75;;
28509;SDS011;15723;55.684;37.928;2023-01-16T03:59:50;38.78;;;11.82;;
28509;SDS011;15723;55.684;37.928;2023-01-16T04:02:20;34.20;;;9.90;;
28509;SDS011;15723;55.684;37.928;2023-01-16T04:05:07;36.13;;;12.65;;
28509;SDS011;15723;55.684;37.928;2023-01-16T04:10:45;29.42;;;10.25;;
28509;SDS011;15723;55.684;37.928;2023-01-16T04:13:10;34.17;;;11.07;;
28509;SDS011;15723;55.684;37.928;2023-01-16T04:15:42;37.97;;;10.40;;
28509;SDS011;15723;55.684;37.928;2023-01-16T04:18:13;26.45;;;10.55;;
28509;SDS011;15723;55.684;37.928;2023-01-16T04:20:39;30.23;;;9.60;;
28509;SDS011;15723;55.684;37.928;2023-01-16T04:23:11;39.95;;;11.30;;
28509;SDS011;15723;55.684;37.928;2023-01-16T04:25:38;41.78;;;12.18;;
28509;SDS011;15723;55.684;37.928;2023-01-16T04:28:04;29.05;;;9.25;;
28509;SDS011;15723;55.684;37.928;2023-01-16T04:30:30;33.75;;;10.65;;
28509;SDS011;15723;55.684;37.928;2023-01-16T04:33:00;39.15;;;11.18;;
28509;SDS011;15723;55.684;37.928;2023-01-16T04:35:27;29.15;;;9.27;;
28509;SDS011;15723;55.684;37.928;2023-01-16T04:37:53;50.28;;;12.52;;
28509;SDS011;15723;55.684;37.928;2023-01-16T04:40:20;32.70;;;12.57;;
28509;SDS011;15723;55.684;37.928;2023-01-16T04:42:46;32.38;;;11.88;;
28509;SDS011;15723;55.684;37.928;2023-01-16T04:45:12;26.00;;;9.15;;
28509;SDS011;15723;55.684;37.928;2023-01-16T04:47:38;31.50;;;9.25;;
28509;SDS011;15723;55.684;37.928;2023-01-16T04:50:05;25.88;;;8.68;;
28509;SDS011;15723;55.684;37.928;2023-01-16T04:52:32;28.58;;;10.02;;
28509;SDS011;15723;55.684;37.928;2023-01-16T04:54:58;19.80;;;7.38;;
28509;SDS011;15723;55.684;37.928;2023-01-16T04:57:24;23.83;;;8.32;;
28509;SDS011;15723;55.684;37.928;2023-01-16T04:59:51;19.92;;;7.22;;
28509;SDS011;15723;55.684;37.928;2023-01-16T05:02:17;32.78;;;7.72;;
28509;SDS011;15723;55.684;37.928;2023-01-16T05:04:43;21.10;;;7.95;;
28509;SDS011;15723;55.684;37.928;2023-01-16T05:07:09;30.75;;;9.18;;
28509;SDS011;15723;55.684;37.928;2023-01-16T05:09:35;20.48;;;6.72;;
28509;SDS011;15723;55.684;37.928;2023-01-16T05:12:01;35.17;;;7.25;;
28509;SDS011;15723;55.684;37.928;2023-01-16T05:14:27;25.80;;;6.65;;
28509;SDS011;15723;55.684;37.928;2023-01-16T05:16:54;26.38;;;7.70;;
28509;SDS011;15723;55.684;37.928;2023-01-16T05:19:20;19.60;;;6.18;;
28509;SDS011;15723;55.684;37.928;2023-01-16T05:21:46;30.45;;;7.57;;
28509;SDS011;15723;55.684;37.928;2023-01-16T05:24:12;24.85;;;7.75;;
28509;SDS011;15723;55.684;37.928;2023-01-16T05:26:38;22.23;;;6.50;;
28509;SDS011;15723;55.684;37.928;2023-01-16T05:29:04;27.40;;;7.85;;
28509;SDS011;15723;55.684;37.928;2023-01-16T05:31:30;18.50;;;6.93;;
28509;SDS011;15723;55.684;37.928;2023-01-16T05:33:56;26.50;;;7.47;;
28509;SDS011;15723;55.684;37.928;2023-01-16T05:36:23;24.73;;;7.03;;
28509;SDS011;15723;55.684;37.928;2023-01-16T05:38:50;20.75;;;7.95;;
28509;SDS011;15723;55.684;37.928;2023-01-16T05:41:16;23.80;;;8.55;;
28509;SDS011;15723;55.684;37.928;2023-01-16T05:43:42;33.10;;;7.65;;
28509;SDS011;15723;55.684;37.928;2023-01-16T05:46:08;21.13;;;7.18;;
28509;SDS011;15723;55.684;37.928;2023-01-16T05:48:35;20.00;;;7.13;;
28509;SDS011;15723;55.684;37.928;2023-01-16T05:51:04;26.27;;;6.93;;
28509;SDS011;15723;55.684;37.928;2023-01-16T05:53:31;23.48;;;7.93;;
28509;SDS011;15723;55.684;37.928;2023-01-16T05:55:58;25.85;;;8.40;;
28509;SDS011;15723;55.684;37.928;2023-01-16T05:58:24;29.77;;;7.78;;
28509;SDS011;15723;55.684;37.928;2023-01-16T06:00:50;24.85;;;8.25;;
28509;SDS011;15723;55.684;37.928;2023-01-16T06:03:17;27.92;;;7.38;;
28509;SDS011;15723;55.684;37.928;2023-01-16T06:05:43;30.05;;;8.57;;
28509;SDS011;15723;55.684;37.928;2023-01-16T06:08:09;21.38;;;7.20;;
28509;SDS011;15723;55.684;37.928;2023-01-16T06:10:35;24.77;;;7.93;;
28509;SDS011;15723;55.684;37.928;2023-01-16T06:13:02;25.65;;;7.18;;
28509;SDS011;15723;55.684;37.928;2023-01-16T06:15:28;31.90;;;8.45;;
28509;SDS011;15723;55.684;37.928;2023-01-16T06:17:55;28.02;;;8.90;;
28509;SDS011;15723;55.684;37.928;2023-01-16T06:20:21;30.27;;;8.65;;
28509;SDS011;15723;55.684;37.928;2023-01-16T06:22:48;27.77;;;9.52;;
28509;SDS011;15723;55.684;37.928;2023-01-16T06:25:14;25.60;;;8.18;;
28509;SDS011;15723;55.684;37.928;2023-01-16T06:27:40;25.38;;;7.57;;
28509;SDS011;15723;55.684;37.928;2023-01-16T06:30:06;27.17;;;8.00;;
28509;SDS011;15723;55.684;37.928;2023-01-16T06:32:33;21.05;;;7.28;;
28509;SDS011;15723;55.684;37.928;2023-01-16T06:35:00;23.67;;;8.73;;
28509;SDS011;15723;55.684;37.928;2023-01-16T06:37:26;38.42;;;9.43;;
28509;SDS011;15723;55.684;37.928;2023-01-16T06:39:52;29.48;;;8.45;;
28509;SDS011;15723;55.684;37.928;2023-01-16T06:42:18;30.45;;;9.30;;
28509;SDS011;15723;55.684;37.928;2023-01-16T06:44:45;28.63;;;8.35;;
28509;SDS011;15723;55.684;37.928;2023-01-16T06:47:11;38.17;;;8.20;;
28509;SDS011;15723;55.684;37.928;2023-01-16T06:49:37;26.92;;;9.05;;
28509;SDS011;15723;55.684;37.928;2023-01-16T06:52:03;31.77;;;8.65;;
28509;SDS011;15723;55.684;37.928;2023-01-16T06:54:30;23.58;;;7.78;;
28509;SDS011;15723;55.684;37.928;2023-01-16T06:56:56;37.10;;;8.48;;
28509;SDS011;15723;55.684;37.928;2023-01-16T06:59:22;24.05;;;7.85;;
28509;SDS011;15723;55.684;37.928;2023-01-16T07:01:48;25.85;;;9.00;;
28509;SDS011;15723;55.684;37.928;2023-01-16T07:04:15;31.27;;;8.43;;
28509;SDS011;15723;55.684;37.928;2023-01-16T07:06:41;32.75;;;9.52;;
28509;SDS011;15723;55.684;37.928;2023-01-16T07:09:09;21.15;;;7.78;;
28509;SDS011;15723;55.684;37.928;2023-01-16T07:11:37;30.48;;;8.15;;
28509;SDS011;15723;55.684;37.928;2023-01-16T07:14:03;30.23;;;8.30;;
28509;SDS011;15723;55.684;37.928;2023-01-16T07:16:48;30.85;;;9.07;;
28509;SDS011;15723;55.684;37.928;2023-01-16T07:19:33;24.08;;;7.00;;
28509;SDS011;15723;55.684;37.928;2023-01-16T07:22:17;34.03;;;8.18;;
28509;SDS011;15723;55.684;37.928;2023-01-16T07:25:03;26.75;;;8.10;;
28509;SDS011;15723;55.684;37.928;2023-01-16T07:27:35;32.05;;;10.48;;
28509;SDS011;15723;55.684;37.928;2023-01-16T07:30:01;27.98;;;10.13;;
28509;SDS011;15723;55.684;37.928;2023-01-16T07:32:29;27.33;;;8.10;;
28509;SDS011;15723;55.684;37.928;2023-01-16T07:34:55;42.72;;;9.60;;
28509;SDS011;15723;55.684;37.928;2023-01-16T07:37:21;23.80;;;9.63;;
28509;SDS011;15723;55.684;37.928;2023-01-16T07:39:47;34.10;;;10.07;;
28509;SDS011;15723;55.684;37.928;2023-01-16T07:42:13;25.80;;;9.30;;
28509;SDS011;15723;55.684;37.928;2023-01-16T07:44:39;28.92;;;8.50;;
28509;SDS011;15723;55.684;37.928;2023-01-16T07:47:06;28.73;;;7.30;;
28509;SDS011;15723;55.684;37.928;2023-01-16T07:49:32;23.30;;;8.65;;
28509;SDS011;15723;55.684;37.928;2023-01-16T07:51:58;27.15;;;9.82;;
28509;SDS011;15723;55.684;37.928;2023-01-16T07:54:24;28.67;;;8.32;;
28509;SDS011;15723;55.684;37.928;2023-01-16T07:56:50;33.67;;;8.95;;
28509;SDS011;15723;55.684;37.928;2023-01-16T07:59:16;36.33;;;8.93;;
28509;SDS011;15723;55.684;37.928;2023-01-16T08:01:42;33.45;;;8.40;;
28509;SDS011;15723;55.684;37.928;2023-01-16T08:04:11;36.00;;;11.02;;
28509;SDS011;15723;55.684;37.928;2023-01-16T08:06:37;42.10;;;11.50;;
28509;SDS011;15723;55.684;37.928;2023-01-16T08:09:08;34.72;;;10.10;;
28509;SDS011;15723;55.684;37.928;2023-01-16T08:11:35;25.00;;;8.60;;
28509;SDS011;15723;55.684;37.928;2023-01-16T08:14:02;24.48;;;11.07;;
28509;SDS011;15723;55.684;37.928;2023-01-16T08:16:29;30.58;;;9.32;;
28509;SDS011;15723;55.684;37.928;2023-01-16T08:18:55;39.42;;;9.32;;
28509;SDS011;15723;55.684;37.928;2023-01-16T08:21:21;28.60;;;9.93;;
28509;SDS011;15723;55.684;37.928;2023-01-16T08:23:47;46.80;;;10.30;;
28509;SDS011;15723;55.684;37.928;2023-01-16T08:26:14;33.42;;;11.25;;
28509;SDS011;15723;55.684;37.928;2023-01-16T08:28:41;22.42;;;8.57;;
28509;SDS011;15723;55.684;37.928;2023-01-16T08:31:08;39.60;;;10.43;;
28509;SDS011;15723;55.684;37.928;2023-01-16T08:33:37;29.25;;;9.60;;
28509;SDS011;15723;55.684;37.928;2023-01-16T08:36:05;36.85;;;13.27;;
28509;SDS011;15723;55.684;37.928;2023-01-16T08:38:33;37.80;;;11.52;;
28509;SDS011;15723;55.684;37.928;2023-01-16T08:40:59;34.33;;;9.52;;
28509;SDS011;15723;55.684;37.928;2023-01-16T08:43:26;27.75;;;9.60;;
28509;SDS011;15723;55.684;37.928;2023-01-16T08:46:20;32.50;;;9.95;;
28509;SDS011;15723;55.684;37.928;2023-01-16T08:49:13;32.65;;;10.27;;
28509;SDS011;15723;55.684;37.928;2023-01-16T08:51:59;44.65;;;10.77;;
28509;SDS011;15723;55.684;37.928;2023-01-16T08:54:25;38.85;;;10.10;;
28509;SDS011;15723;55.684;37.928;2023-01-16T08:56:51;35.50;;;10.93;;
28509;SDS011;15723;55.684;37.928;2023-01-16T08:59:17;45.85;;;11.32;;
28509;SDS011;15723;55.684;37.928;2023-01-16T09:01:44;32.50;;;12.18;;
28509;SDS011;15723;55.684;37.928;2023-01-16T09:04:10;37.60;;;13.52;;
28509;SDS011;15723;55.684;37.928;2023-01-16T09:06:36;31.20;;;9.18;;
28509;SDS011;15723;55.684;37.928;2023-01-16T09:09:03;28.15;;;10.07;;
28509;SDS011;15723;55.684;37.928;2023-01-16T09:11:32;27.08;;;8.68;;
28509;SDS011;15723;55.684;37.928;2023-01-16T09:14:17;28.42;;;9.75;;
28509;SDS011;15723;55.684;37.928;2023-01-16T09:16:43;34.90;;;10.07;;
28509;SDS011;15723;55.684;37.928;2023-01-16T09:19:09;27.67;;;9.73;;
28509;SDS011;15723;55.684;37.928;2023-01-16T09:21:36;28.75;;;9.35;;
28509;SDS011;15723;55.684;37.928;2023-01-16T09:24:02;32.83;;;9.73;;
28509;SDS011;15723;55.684;37.928;2023-01-16T09:26:29;34.53;;;9.70;;
28509;SDS011;15723;55.684;37.928;2023-01-16T09:28:56;31.42;;;9.60;;
28509;SDS011;15723;55.684;37.928;2023-01-16T09:31:22;33.95;;;13.15;;
28509;SDS011;15723;55.684;37.928;2023-01-16T09:33:49;28.30;;;10.52;;
28509;SDS011;15723;55.684;37.928;2023-01-16T09:36:16;31.50;;;9.57;;
28509;SDS011;15723;55.684;37.928;2023-01-16T09:38:42;25.88;;;8.80;;
28509;SDS011;15723;55.684;37.928;2023-01-16T09:41:11;21.35;;;7.55;;
28509;SDS011;15723;55.684;37.928;2023-01-16T09:44:00;31.23;;;9.70;;
28509;SDS011;15723;55.684;37.928;2023-01-16T09:46:29;31.92;;;8.95;;
28509;SDS011;15723;55.684;37.928;2023-01-16T09:49:02;23.38;;;8.73;;
28509;SDS011;15723;55.684;37.928;2023-01-16T09:51:39;23.13;;;7.45;;
28509;SDS011;15723;55.684;37.928;2023-01-16T09:54:28;27.05;;;9.13;;
28509;SDS011;15723;55.684;37.928;2023-01-16T09:57:24;22.50;;;7.47;;
28509;SDS011;15723;55.684;37.928;2023-01-16T10:00:26;28.00;;;9.18;;
28509;SDS011;15723;55.684;37.928;2023-01-16T10:02:55;21.25;;;8.27;;
28509;SDS011;15723;55.684;37.928;2023-01-16T10:05:21;15.68;;;6.93;;
28509;SDS011;15723;55.684;37.928;2023-01-16T10:15:35;19.58;;;8.05;;
28509;SDS011;15723;55.684;37.928;2023-01-16T10:21:06;23.08;;;8.07;;
28509;SDS011;15723;55.684;37.928;2023-01-16T10:23:49;19.27;;;7.63;;
28509;SDS011;15723;55.684;37.928;2023-01-16T10:26:22;22.65;;;10.13;;
28509;SDS011;15723;55.684;37.928;2023-01-16T10:28:59;21.02;;;7.82;;
28509;SDS011;15723;55.684;37.928;2023-01-16T10:31:30;23.70;;;7.57;;
28509;SDS011;15723;55.684;37.928;2023-01-16T10:34:05;20.45;;;8.35;;
28509;SDS011;15723;55.684;37.928;2023-01-16T10:36:50;21.87;;;7.30;;
28509;SDS011;15723;55.684;37.928;2023-01-16T10:39:21;13.80;;;6.13;;
28509;SDS011;15723;55.684;37.928;2023-01-16T10:47:59;22.73;;;7.50;;
28509;SDS011;15723;55.684;37.928;2023-01-16T10:50:45;24.83;;;9.05;;
28509;SDS011;15723;55.684;37.928;2023-01-16T10:53:12;18.15;;;7.78;;
28509;SDS011;15723;55.684;37.928;2023-01-16T10:55:39;25.27;;;6.78;;
28509;SDS011;15723;55.684;37.928;2023-01-16T10:58:55;16.85;;;6.97;;
28509;SDS011;15723;55.684;37.928;2023-01-16T11:01:20;19.33;;;7.43;;
28509;SDS011;15723;55.684;37.928;2023-01-16T11:03:53;17.48;;;6.93;;
28509;SDS011;15723;55.684;37.928;2023-01-16T11:06:21;24.02;;;8.38;;
28509;SDS011;15723;55.684;37.928;2023-01-16T11:08:52;17.25;;;7.32;;
28509;SDS011;15723;55.684;37.928;2023-01-16T11:11:20;18.10;;;7.60;;
28509;SDS011;15723;55.684;37.928;2023-01-16T11:17:33;17.50;;;7.20;;
28509;SDS011;15723;55.684;37.928;2023-01-16T11:20:28;15.70;;;7.97;;
28509;SDS011;15723;55.684;37.928;2023-01-16T11:22:58;17.17;;;6.47;;
28509;SDS011;15723;55.684;37.928;2023-01-16T11:25:45;16.25;;;5.88;;
28509;SDS011;15723;55.684;37.928;2023-01-16T11:28:18;22.20;;;7.88;;
28509;SDS011;15723;55.684;37.928;2023-01-16T11:30:48;16.98;;;7.53;;
28509;SDS011;15723;55.684;37.928;2023-01-16T11:33:19;25.80;;;9.35;;
28509;SDS011;15723;55.684;37.928;2023-01-16T11:35:53;17.92;;;9.10;;
28509;SDS011;15723;55.684;37.928;2023-01-16T11:38:21;20.85;;;7.35;;
28509;SDS011;15723;55.684;37.928;2023-01-16T11:40:50;20.65;;;7.40;;
28509;SDS011;15723;55.684;37.928;2023-01-16T11:43:24;18.70;;;8.27;;
28509;SDS011;15723;55.684;37.928;2023-01-16T11:48:57;18.88;;;8.57;;
28509;SDS011;15723;55.684;37.928;2023-01-16T11:51:30;19.33;;;7.25;;
28509;SDS011;15723;55.684;37.928;2023-01-16T11:53:58;15.77;;;6.77;;
28509;SDS011;15723;55.684;37.928;2023-01-16T12:05:31;21.23;;;10.23;;
28509;SDS011;15723;55.684;37.928;2023-01-16T12:14:27;18.25;;;8.45;;
28509;SDS011;15723;55.684;37.928;2023-01-16T12:17:16;21.33;;;7.20;;
28509;SDS011;15723;55.684;37.928;2023-01-16T12:24:59;19.33;;;7.60;;
28509;SDS011;15723;55.684;37.928;2023-01-16T12:27:39;25.98;;;8.52;;
28509;SDS011;15723;55.684;37.928;2023-01-16T12:30:27;21.38;;;8.18;;
28509;SDS011;15723;55.684;37.928;2023-01-16T12:33:22;15.15;;;6.70;;
28509;SDS011;15723;55.684;37.928;2023-01-16T12:41:33;14.60;;;7.55;;
28509;SDS011;15723;55.684;37.928;2023-01-16T12:47:52;23.15;;;8.68;;
28509;SDS011;15723;55.684;37.928;2023-01-16T12:59:18;22.00;;;8.77;;
28509;SDS011;15723;55.684;37.928;2023-01-16T13:01:46;27.65;;;10.00;;
28509;SDS011;15723;55.684;37.928;2023-01-16T13:04:26;19.85;;;9.15;;
28509;SDS011;15723;55.684;37.928;2023-01-16T13:07:00;21.58;;;7.93;;
28509;SDS011;15723;55.684;37.928;2023-01-16T13:09:50;22.70;;;9.85;;
28509;SDS011;15723;55.684;37.928;2023-01-16T13:12:43;27.33;;;10.35;;
28509;SDS011;15723;55.684;37.928;2023-01-16T13:15:30;14.60;;;7.95;;
28509;SDS011;15723;55.684;37.928;2023-01-16T13:18:05;22.20;;;8.07;;
28509;SDS011;15723;55.684;37.928;2023-01-16T13:20:37;17.35;;;7.75;;
28509;SDS011;15723;55.684;37.928;2023-01-16T13:23:23;23.25;;;9.20;;
28509;SDS011;15723;55.684;37.928;2023-01-16T13:26:11;22.38;;;8.95;;
28509;SDS011;15723;55.684;37.928;2023-01-16T13:28:55;19.38;;;8.65;;
28509;SDS011;15723;55.684;37.928;2023-01-16T13:31:39;15.60;;;7.93;;
28509;SDS011;15723;55.684;37.928;2023-01-16T13:34:29;20.33;;;8.70;;
28509;SDS011;15723;55.684;37.928;2023-01-16T13:39:56;20.70;;;9.43;;
28509;SDS011;15723;55.684;37.928;2023-01-16T13:42:55;22.40;;;8.52;;
28509;SDS011;15723;55.684;37.928;2023-01-16T13:45:49;24.15;;;9.15;;
28509;SDS011;15723;55.684;37.928;2023-01-16T13:48:20;22.60;;;8.40;;
28509;SDS011;15723;55.684;37.928;2023-01-16T13:50:51;19.52;;;8.43;;
28509;SDS011;15723;55.684;37.928;2023-01-16T13:53:25;23.98;;;9.25;;
28509;SDS011;15723;55.684;37.928;2023-01-16T13:56:04;21.65;;;8.73;;
28509;SDS011;15723;55.684;37.928;2023-01-16T13:58:45;19.30;;;9.07;;
28509;SDS011;15723;55.684;37.928;2023-01-16T14:04:36;25.40;;;8.63;;
28509;SDS011;15723;55.684;37.928;2023-01-16T14:06:59;24.40;;;9.02;;
28509;SDS011;15723;55.684;37.928;2023-01-16T14:12:43;23.65;;;9.70;;
28509;SDS011;15723;55.684;37.928;2023-01-16T14:15:29;29.42;;;9.75;;
28509;SDS011;15723;55.684;37.928;2023-01-16T14:18:38;22.25;;;9.95;;
28509;SDS011;15723;55.684;37.928;2023-01-16T14:21:11;25.30;;;10.55;;
28509;SDS011;15723;55.684;37.928;2023-01-16T14:23:48;29.40;;;11.05;;
28509;SDS011;15723;55.684;37.928;2023-01-16T14:28:59;24.65;;;10.10;;
28509;SDS011;15723;55.684;37.928;2023-01-16T14:31:39;31.83;;;10.68;;
28509;SDS011;15723;55.684;37.928;2023-01-16T14:34:15;29.65;;;11.18;;
28509;SDS011;15723;55.684;37.928;2023-01-16T14:36:44;29.13;;;11.57;;
28509;SDS011;15723;55.684;37.928;2023-01-16T14:42:14;22.77;;;10.73;;
28509;SDS011;15723;55.684;37.928;2023-01-16T14:59:45;30.15;;;10.57;;
28509;SDS011;15723;55.684;37.928;2023-01-16T15:02:19;32.58;;;12.68;;
28509;SDS011;15723;55.684;37.928;2023-01-16T15:07:38;34.50;;;12.48;;
28509;SDS011;15723;55.684;37.928;2023-01-16T15:13:37;35.17;;;12.20;;
28509;SDS011;15723;55.684;37.928;2023-01-16T15:16:18;31.07;;;11.37;;
28509;SDS011;15723;55.684;37.928;2023-01-16T15:19:18;34.03;;;12.52;;
28509;SDS011;15723;55.684;37.928;2023-01-16T15:25:07;40.97;;;12.18;;
28509;SDS011;15723;55.684;37.928;2023-01-16T15:27:48;32.30;;;12.57;;
28509;SDS011;15723;55.684;37.928;2023-01-16T15:30:30;31.02;;;11.40;;
28509;SDS011;15723;55.684;37.928;2023-01-16T15:32:58;36.60;;;11.95;;
28509;SDS011;15723;55.684;37.928;2023-01-16T15:35:44;36.38;;;12.45;;
28509;SDS011;15723;55.684;37.928;2023-01-16T15:38:34;35.30;;;13.68;;
28509;SDS011;15723;55.684;37.928;2023-01-16T15:41:01;35.78;;;14.15;;
28509;SDS011;15723;55.684;37.928;2023-01-16T15:43:30;39.03;;;12.82;;
28509;SDS011;15723;55.684;37.928;2023-01-16T15:46:23;36.22;;;13.50;;
28509;SDS011;15723;55.684;37.928;2023-01-16T15:49:19;43.22;;;13.93;;
28509;SDS011;15723;55.684;37.928;2023-01-16T15:52:05;32.38;;;12.80;;
28509;SDS011;15723;55.684;37.928;2023-01-16T15:54:31;45.65;;;14.63;;
28509;SDS011;15723;55.684;37.928;2023-01-16T15:56:57;40.15;;;15.82;;
28509;SDS011;15723;55.684;37.928;2023-01-16T15:59:27;39.05;;;13.68;;
28509;SDS011;15723;55.684;37.928;2023-01-16T16:02:15;38.05;;;14.73;;
28509;SDS011;15723;55.684;37.928;2023-01-16T16:04:49;31.17;;;13.73;;
28509;SDS011;15723;55.684;37.928;2023-01-16T16:07:18;35.42;;;13.75;;
28509;SDS011;15723;55.684;37.928;2023-01-16T16:09:46;35.03;;;14.45;;
28509;SDS011;15723;55.684;37.928;2023-01-16T16:12:16;36.70;;;14.70;;
28509;SDS011;15723;55.684;37.928;2023-01-16T16:14:44;38.63;;;15.52;;
28509;SDS011;15723;55.684;37.928;2023-01-16T16:17:59;42.97;;;14.65;;
28509;SDS011;15723;55.684;37.928;2023-01-16T16:20:37;32.80;;;14.80;;
28509;SDS011;15723;55.684;37.928;2023-01-16T16:25:59;30.27;;;12.57;;
28509;SDS011;15723;55.684;37.928;2023-01-16T16:28:26;38.30;;;14.30;;
28509;SDS011;15723;55.684;37.928;2023-01-16T16:33:52;36.03;;;14.05;;
28509;SDS011;15723;55.684;37.928;2023-01-16T16:36:40;45.20;;;15.80;;
28509;SDS011;15723;55.684;37.928;2023-01-16T16:39:35;36.17;;;16.02;;
28509;SDS011;15723;55.684;37.928;2023-01-16T16:45:08;34.83;;;14.45;;
28509;SDS011;15723;55.684;37.928;2023-01-16T16:47:41;34.40;;;14.45;;
28509;SDS011;15723;55.684;37.928;2023-01-16T16:53:03;38.25;;;15.25;;
28509;SDS011;15723;55.684;37.928;2023-01-16T16:55:40;41.63;;;14.65;;
28509;SDS011;15723;55.684;37.928;2023-01-16T16:58:19;33.10;;;15.55;;
28509;SDS011;15723;55.684;37.928;2023-01-16T17:00:48;36.70;;;14.52;;
28509;SDS011;15723;55.684;37.928;2023-01-16T17:03:18;43.42;;;15.75;;
28509;SDS011;15723;55.684;37.928;2023-01-16T17:05:47;38.75;;;17.00;;
28509;SDS011;15723;55.684;37.928;2023-01-16T17:08:27;44.92;;;16.80;;
28509;SDS011;15723;55.684;37.928;2023-01-16T17:10:56;36.47;;;15.85;;
28509;SDS011;15723;55.684;37.928;2023-01-16T17:13:23;39.25;;;15.10;;
28509;SDS011;15723;55.684;37.928;2023-01-16T17:15:51;41.95;;;16.25;;
28509;SDS011;15723;55.684;37.928;2023-01-16T17:18:20;33.95;;;14.48;;
28509;SDS011;15723;55.684;37.928;2023-01-16T17:20:49;36.10;;;17.00;;
28509;SDS011;15723;55.684;37.928;2023-01-16T17:23:18;37.95;;;15.57;;
28509;SDS011;15723;55.684;37.928;2023-01-16T17:25:45;32.00;;;14.70;;